Time;durP1;ratioP1;P1;durP2;ratioP2;P2;SDS_P1;SDS_P2;PMS_P1;PMS_P2;Temp;Humidity;BMP_temperature;BMP_pressure;BME280_temperature;BME280_humidity;BME280_pressure;Samples;Min_cycle;Max_cycle;Signal;HPM_P1;HPM_P2
2021/12/25 00:01:36;;;;;;;3.73;1.70;;;7.00;99.90;;;;;;5032824;28;20269;-60
2021/12/25 00:04:01;;;;;;;4.03;2.03;;;6.90;99.90;;;;;;5032277;28;20744;-60
2021/12/25 00:06:27;;;;;;;3.97;1.87;;;6.90;99.90;;;;;;5014751;28;20222;-60
2021/12/25 00:08:53;;;;;;;4.47;1.70;;;6.90;99.90;;;;;;5032528;28;20199;-59
2021/12/25 00:11:19;;;;;;;3.20;1.63;;;6.80;99.90;;;;;;5032121;28;20603;-59
2021/12/25 00:13:45;;;;;;;3.23;1.63;;;6.80;99.90;;;;;;5015103;28;20178;-59
2021/12/25 00:16:11;;;;;;;3.17;1.53;;;6.70;99.90;;;;;;5032065;28;20239;-59
2021/12/25 00:18:38;;;;;;;2.33;1.27;;;6.70;99.90;;;;;;5032193;28;20564;-58
2021/12/25 00:21:05;;;;;;;2.73;1.20;;;6.60;99.90;;;;;;5031850;28;20285;-61
2021/12/25 00:23:31;;;;;;;1.13;0.70;;;6.60;99.90;;;;;;5010097;28;20192;-59
2021/12/25 00:26:02;;;;;;;1.43;0.77;;;6.50;99.90;;;;;;5012593;28;20190;-58
2021/12/25 00:31:23;;;;;;;2.57;0.70;;;6.20;99.90;;;;;;5031389;28;20179;-59
2021/12/25 00:33:57;;;;;;;2.30;1.20;;;6.10;99.90;;;;;;5032090;28;20194;-58
2021/12/25 00:36:24;;;;;;;2.07;0.90;;;5.90;99.90;;;;;;5031878;28;20210;-62
2021/12/25 00:38:51;;;;;;;3.13;1.20;;;5.70;99.90;;;;;;5032479;28;20183;-59
2021/12/25 00:41:20;;;;;;;2.67;1.60;;;5.50;99.90;;;;;;5031807;28;20183;-62
2021/12/25 00:43:47;;;;;;;1.37;0.80;;;5.40;99.90;;;;;;5032047;28;20237;-60
2021/12/25 00:46:13;;;;;;;2.27;1.13;;;5.10;99.90;;;;;;5032157;28;20531;-60
2021/12/25 00:48:39;;;;;;;2.70;1.07;;;4.90;99.90;;;;;;5031883;28;20192;-59
2021/12/25 00:51:05;;;;;;;1.60;0.70;;;4.70;99.90;;;;;;5031575;28;20187;-60
2021/12/25 00:53:31;;;;;;;2.93;1.10;;;4.60;99.90;;;;;;5031919;28;20278;-59
2021/12/25 00:55:57;;;;;;;2.27;1.00;;;4.60;99.90;;;;;;5032611;28;20594;-59
2021/12/25 00:58:23;;;;;;;1.70;0.87;;;4.40;99.90;;;;;;5031794;28;20597;-59
2021/12/25 01:00:49;;;;;;;1.97;0.90;;;4.40;99.90;;;;;;5017029;28;20247;-62
2021/12/25 01:03:15;;;;;;;1.13;0.70;;;4.40;99.90;;;;;;5035385;28;20675;-60
2021/12/25 01:05:41;;;;;;;2.17;0.93;;;4.50;99.90;;;;;;5035749;28;20186;-62
2021/12/25 01:08:07;;;;;;;1.70;1.10;;;4.60;99.90;;;;;;5035357;28;20208;-59
2021/12/25 01:10:34;;;;;;;1.53;0.63;;;4.50;99.90;;;;;;5035672;28;20211;-62
2021/12/25 01:13:15;;;;;;;1.27;0.90;;;4.50;99.90;;;;;;5035473;28;20195;-64
2021/12/25 01:31:30;;;;;;;3.63;1.00;;;4.60;99.90;;;;;;4987006;28;20264;-60
2021/12/25 01:39:09;;;;;;;3.57;1.17;;;4.30;99.90;;;;;;5015705;28;20212;-59
2021/12/25 01:49:38;;;;;;;2.17;1.20;;;3.40;99.90;;;;;;5015638;28;20677;-60
2021/12/25 01:52:05;;;;;;;4.60;1.73;;;3.20;99.90;;;;;;5033842;28;20184;-60
2021/12/25 01:54:32;;;;;;;2.90;1.33;;;3.00;99.90;;;;;;5035305;28;20208;-61
2021/12/25 01:56:58;;;;;;;2.80;1.27;;;2.80;99.90;;;;;;5035232;28;20203;-60
2021/12/25 01:59:24;;;;;;;3.80;1.67;;;2.70;99.90;;;;;;5034609;28;20231;-58
2021/12/25 02:01:50;;;;;;;3.63;1.53;;;2.60;99.90;;;;;;5034786;28;20268;-60
2021/12/25 02:04:16;;;;;;;3.37;1.77;;;2.50;99.90;;;;;;5034812;28;20644;-59
2021/12/25 02:06:42;;;;;;;2.50;1.33;;;2.40;99.90;;;;;;5035085;28;20218;-59
2021/12/25 02:09:08;;;;;;;1.57;0.93;;;2.40;99.90;;;;;;5034249;28;20516;-59
2021/12/25 02:11:33;;;;;;;2.97;1.27;;;2.50;99.90;;;;;;5034402;28;20270;-59
2021/12/25 02:13:59;;;;;;;5.27;1.60;;;2.50;99.90;;;;;;5016846;28;20178;-71
2021/12/25 02:16:39;;;;;;;3.70;1.73;;;2.60;99.90;;;;;;5034490;28;20245;-59
2021/12/25 02:19:10;;;;;;;3.30;1.60;;;2.70;99.90;;;;;;5034423;28;20232;-60
2021/12/25 02:21:40;;;;;;;5.33;1.63;;;2.90;99.90;;;;;;5034810;28;20175;-59
2021/12/25 02:24:09;;;;;;;4.47;1.63;;;3.10;99.90;;;;;;5025228;28;20543;-59
2021/12/25 02:26:37;;;;;;;2.27;1.17;;;3.10;99.90;;;;;;5014914;28;20183;-59
2021/12/25 02:29:03;;;;;;;2.23;1.17;;;3.10;99.90;;;;;;5017815;28;20179;-60
2021/12/25 02:31:29;;;;;;;1.70;1.00;;;3.20;99.90;;;;;;5034253;28;20205;-60
2021/12/25 02:33:55;;;;;;;2.43;1.30;;;3.20;99.90;;;;;;5034477;28;20191;-60
2021/12/25 02:36:21;;;;;;;4.07;1.90;;;3.10;99.90;;;;;;5034185;28;20212;-59
2021/12/25 02:38:48;;;;;;;4.17;1.80;;;3.10;99.90;;;;;;5034050;28;20631;-58
2021/12/25 02:41:14;;;;;;;4.43;1.80;;;3.00;99.90;;;;;;5033992;28;20175;-60
2021/12/25 02:43:43;;;;;;;3.17;1.30;;;3.00;99.90;;;;;;5034244;28;20190;-61
2021/12/25 02:46:09;;;;;;;2.57;1.30;;;2.90;99.90;;;;;;5034014;28;20194;-58
2021/12/25 02:48:41;;;;;;;3.03;1.30;;;2.80;99.90;;;;;;5033847;28;20179;-59
2021/12/25 02:51:07;;;;;;;4.87;1.43;;;2.70;99.90;;;;;;5033658;28;20187;-59
2021/12/25 02:53:33;;;;;;;4.63;1.70;;;2.80;99.90;;;;;;5032135;28;20269;-60
2021/12/25 02:55:59;;;;;;;3.17;1.30;;;2.80;99.90;;;;;;5033815;28;20696;-59
2021/12/25 02:58:25;;;;;;;3.33;1.60;;;3.00;99.90;;;;;;5033953;28;20262;-60
2021/12/25 03:00:59;;;;;;;3.83;1.40;;;3.10;99.90;;;;;;5033956;28;20666;-60
2021/12/25 03:03:25;;;;;;;4.40;2.17;;;3.10;99.90;;;;;;5033455;28;20179;-59
2021/12/25 03:05:52;;;;;;;3.83;1.40;;;3.20;99.90;;;;;;5033614;28;20630;-59
2021/12/25 03:08:19;;;;;;;7.07;2.40;;;3.10;99.90;;;;;;5033235;28;20187;-60
2021/12/25 03:10:45;;;;;;;4.47;2.17;;;3.00;99.90;;;;;;5033859;28;20187;-59
2021/12/25 03:15:47;;;;;;;3.97;1.90;;;2.50;99.90;;;;;;5033358;28;20211;-60
2021/12/25 03:18:19;;;;;;;4.53;2.00;;;2.60;99.90;;;;;;5033007;28;20166;-60
2021/12/25 03:20:50;;;;;;;3.00;1.70;;;2.90;99.90;;;;;;5033123;28;20191;-60
2021/12/25 03:23:18;;;;;;;2.13;1.20;;;3.00;99.90;;;;;;5030469;28;20188;-60
2021/12/25 03:25:48;;;;;;;4.27;2.20;;;3.00;99.90;;;;;;5013459;28;20270;-59
2021/12/25 03:28:16;;;;;;;4.43;1.93;;;3.00;99.90;;;;;;5013344;28;20263;-60
2021/12/25 03:30:43;;;;;;;4.27;1.23;;;3.30;99.90;;;;;;5030430;28;20213;-59
2021/12/25 03:33:12;;;;;;;4.63;1.83;;;3.30;99.90;;;;;;5014990;28;20191;-59
2021/12/25 03:35:38;;;;;;;4.80;3.20;;;3.30;99.90;;;;;;5033170;28;20210;-59
2021/12/25 03:38:05;;;;;;;3.63;1.20;;;3.10;99.90;;;;;;5033133;28;20179;-59
2021/12/25 03:40:31;;;;;;;2.03;1.20;;;3.00;99.90;;;;;;5032854;28;20179;-60
2021/12/25 03:42:57;;;;;;;3.57;1.53;;;3.20;99.90;;;;;;5032777;28;20208;-59
2021/12/25 03:45:24;;;;;;;1.57;0.70;;;3.60;99.90;;;;;;5032770;28;20182;-59
2021/12/25 03:48:01;;;;;;;2.20;1.00;;;3.90;99.90;;;;;;5032849;28;20188;-62
2021/12/25 03:58:37;;;;;;;2.40;1.50;;;4.40;99.90;;;;;;5012982;28;20179;-59
2021/12/25 04:01:45;;;;;;;2.47;1.10;;;4.50;99.90;;;;;;5012348;28;20282;-59
2021/12/25 04:06:58;;;;;;;5.43;2.33;;;4.20;99.90;;;;;;5012818;28;20261;-60
2021/12/25 04:09:28;;;;;;;1.23;0.60;;;4.10;99.90;;;;;;5012962;28;20227;-59
2021/12/25 04:12:00;;;;;;;2.90;1.37;;;4.00;99.90;;;;;;5012741;28;20187;-60
2021/12/25 04:14:26;;;;;;;2.73;1.30;;;3.90;99.90;;;;;;5012678;28;20170;-60
2021/12/25 04:16:53;;;;;;;2.50;1.30;;;3.70;99.90;;;;;;5012090;28;20301;-59
2021/12/25 04:19:19;;;;;;;2.97;1.57;;;3.60;99.90;;;;;;5012504;28;20185;-59
2021/12/25 04:21:54;;;;;;;4.23;1.90;;;3.40;99.90;;;;;;5012715;28;20180;-58
2021/12/25 04:24:21;;;;;;;5.13;2.80;;;3.20;99.90;;;;;;5012404;28;20203;-59
2021/12/25 04:26:48;;;;;;;3.73;1.90;;;2.90;99.90;;;;;;5012500;28;20203;-59
2021/12/25 04:29:31;;;;;;;9.23;3.10;;;2.80;99.90;;;;;;5017340;28;20183;-59
2021/12/25 05:06:48;;;;;;;5.87;2.47;;;2.60;99.90;;;;;;5032071;28;20193;-59
2021/12/25 05:09:14;;;;;;;3.97;1.70;;;2.40;99.90;;;;;;5031615;28;20213;-59
2021/12/25 05:11:40;;;;;;;17.30;5.13;;;2.40;99.90;;;;;;5031809;28;20178;-59
2021/12/25 05:14:06;;;;;;;11.90;3.77;;;2.40;99.90;;;;;;5031661;28;20277;-59
2021/12/25 05:16:31;;;;;;;5.20;2.40;;;2.50;99.90;;;;;;5031249;28;20292;-60
2021/12/25 05:18:57;;;;;;;9.90;3.40;;;2.50;99.90;;;;;;5031784;28;20178;-63
2021/12/25 05:21:23;;;;;;;4.40;2.10;;;2.30;99.90;;;;;;5031591;28;20185;-60
2021/12/25 05:23:49;;;;;;;6.50;2.57;;;2.20;99.90;;;;;;5025339;28;20195;-59
2021/12/25 05:26:15;;;;;;;4.43;1.70;;;2.00;99.90;;;;;;5011774;28;20196;-59
2021/12/25 05:28:44;;;;;;;4.23;2.23;;;1.90;99.90;;;;;;5012301;28;20535;-59
2021/12/25 05:31:12;;;;;;;6.80;2.30;;;1.80;99.90;;;;;;5031027;28;20198;-60
2021/12/25 05:33:39;;;;;;;6.10;2.30;;;1.70;99.90;;;;;;5031778;28;20226;-60
2021/12/25 05:36:05;;;;;;;6.07;2.30;;;1.60;99.90;;;;;;5031411;28;20587;-61
2021/12/25 05:38:32;;;;;;;5.50;2.40;;;1.50;99.90;;;;;;5031674;28;20645;-60
2021/12/25 05:40:58;;;;;;;5.77;2.03;;;1.40;99.90;;;;;;5031664;28;20178;-60
2021/12/25 05:43:23;;;;;;;6.30;2.10;;;1.30;99.90;;;;;;5031511;28;20186;-60
2021/12/25 05:45:49;;;;;;;4.50;1.70;;;1.30;99.90;;;;;;5031462;28;20191;-63
2021/12/25 05:48:15;;;;;;;5.47;2.70;;;1.20;99.90;;;;;;5035284;28;20278;-60
2021/12/25 05:50:41;;;;;;;6.47;3.10;;;1.20;99.90;;;;;;5035172;28;20190;-60
2021/12/25 05:53:07;;;;;;;45.77;16.70;;;1.10;99.90;;;;;;5034751;28;20608;-60
2021/12/25 05:55:33;;;;;;;31.47;13.27;;;1.00;99.90;;;;;;5035082;28;20274;-60
2021/12/25 05:57:59;;;;;;;20.20;7.40;;;1.00;99.90;;;;;;5034889;28;20644;-59
2021/12/25 06:00:25;;;;;;;11.00;5.10;;;1.00;99.90;;;;;;5034672;28;20267;-63
2021/12/25 06:02:51;;;;;;;13.47;5.47;;;1.00;99.90;;;;;;5035118;28;20642;-60
2021/12/25 06:05:18;;;;;;;18.20;6.73;;;0.90;99.90;;;;;;5034357;28;20182;-59
2021/12/25 06:07:44;;;;;;;19.63;7.47;;;0.90;99.90;;;;;;5035048;28;20179;-59
2021/12/25 06:10:11;;;;;;;34.33;14.00;;;1.00;99.90;;;;;;5034502;28;20493;-59
2021/12/25 06:12:38;;;;;;;29.47;11.60;;;1.00;99.90;;;;;;5034231;28;20641;-59
2021/12/25 06:15:08;;;;;;;30.27;11.10;;;1.00;99.90;;;;;;5034078;28;20228;-60
2021/12/25 06:17:34;;;;;;;13.90;6.40;;;1.10;99.90;;;;;;5034747;28;20247;-58
2021/12/25 06:20:00;;;;;;;6.40;3.40;;;1.30;99.90;;;;;;5034721;28;20182;-59
2021/12/25 06:22:25;;;;;;;10.67;4.00;;;1.50;99.90;;;;;;5016989;28;20696;-61
2021/12/25 06:24:51;;;;;;;9.87;4.03;;;1.70;99.90;;;;;;5019130;28;20222;-60
2021/12/25 06:27:18;;;;;;;13.57;4.37;;;1.80;99.90;;;;;;5014415;28;20194;-60
2021/12/25 06:29:44;;;;;;;11.70;5.53;;;2.00;99.90;;;;;;5023559;28;20197;-62
2021/12/25 06:32:11;;;;;;;10.13;5.10;;;2.20;99.90;;;;;;5033702;28;20175;-58
2021/12/25 06:34:37;;;;;;;17.50;7.60;;;2.30;99.90;;;;;;5034232;28;20534;-58
2021/12/25 06:37:03;;;;;;;25.20;9.10;;;2.40;99.90;;;;;;5034005;28;20214;-60
2021/12/25 06:39:30;;;;;;;21.93;7.90;;;2.40;99.90;;;;;;5034352;28;20194;-59
2021/12/25 06:41:56;;;;;;;13.37;5.77;;;2.40;99.90;;;;;;5034255;28;20530;-62
2021/12/25 06:44:24;;;;;;;17.90;8.70;;;2.50;99.90;;;;;;5033711;28;20175;-59
2021/12/25 06:46:56;;;;;;;18.53;8.70;;;2.60;99.90;;;;;;5016402;28;20283;-58
2021/12/25 06:49:23;;;;;;;14.63;6.93;;;2.60;99.90;;;;;;5033996;28;20631;-60
2021/12/25 06:51:51;;;;;;;14.00;6.07;;;2.70;99.90;;;;;;5033717;28;20183;-59
2021/12/25 06:54:17;;;;;;;13.23;6.93;;;3.10;99.90;;;;;;5033290;28;20208;-61
2021/12/25 06:56:44;;;;;;;13.90;5.37;;;3.40;99.90;;;;;;5033656;28;20203;-60
2021/12/25 06:59:10;;;;;;;9.80;4.63;;;3.60;99.90;;;;;;5032475;28;20194;-60
2021/12/25 07:01:36;;;;;;;11.03;5.53;;;3.80;99.90;;;;;;5033381;28;20187;-59
2021/12/25 07:04:03;;;;;;;11.93;5.73;;;4.00;99.90;;;;;;5033532;28;20197;-61
2021/12/25 07:06:29;;;;;;;14.07;5.03;;;4.10;99.90;;;;;;5016125;28;20205;-59
2021/12/25 07:08:55;;;;;;;16.97;7.13;;;4.10;99.90;;;;;;5016109;28;20197;-60
2021/12/25 07:11:21;;;;;;;14.20;6.20;;;4.10;99.90;;;;;;5033413;28;20624;-64
2021/12/25 07:13:49;;;;;;;14.20;6.97;;;4.20;99.90;;;;;;5033506;28;20282;-59
2021/12/25 07:16:14;;;;;;;9.20;4.40;;;4.10;99.90;;;;;;5032463;28;20246;-64
2021/12/25 07:18:40;;;;;;;13.37;7.10;;;4.10;99.90;;;;;;5033491;28;20183;-59
2021/12/25 07:21:06;;;;;;;11.70;6.67;;;4.10;99.90;;;;;;5033267;28;20211;-59
2021/12/25 07:23:33;;;;;;;16.00;7.40;;;4.10;99.90;;;;;;5029068;28;20636;-59
2021/12/25 07:26:00;;;;;;;16.77;8.33;;;4.00;99.90;;;;;;5013316;28;20267;-60
2021/12/25 07:28:26;;;;;;;17.83;8.20;;;4.00;99.90;;;;;;5012894;28;20268;-59
2021/12/25 07:30:52;;;;;;;13.57;7.60;;;3.90;99.90;;;;;;5031222;28;20202;-59
2021/12/25 07:33:18;;;;;;;16.33;6.93;;;3.90;99.90;;;;;;5032602;28;20183;-62
2021/12/25 07:35:44;;;;;;;14.77;6.50;;;3.90;99.90;;;;;;5033261;28;20246;-60
2021/12/25 07:38:10;;;;;;;15.80;5.90;;;3.80;99.90;;;;;;5032859;28;20247;-60
2021/12/25 07:40:36;;;;;;;14.23;5.53;;;3.70;99.90;;;;;;5033132;28;20212;-60
2021/12/25 07:43:02;;;;;;;14.13;4.73;;;3.70;99.90;;;;;;5032592;28;20207;-62
2021/12/25 07:45:28;;;;;;;11.37;5.00;;;3.60;99.90;;;;;;5032092;28;20179;-59
2021/12/25 07:48:00;;;;;;;12.07;5.37;;;3.50;99.90;;;;;;5032702;28;20282;-60
2021/12/25 07:50:27;;;;;;;12.47;4.60;;;3.60;99.90;;;;;;5032380;28;20203;-59
2021/12/25 07:52:53;;;;;;;16.37;5.03;;;3.60;99.90;;;;;;5014733;28;20528;-59
2021/12/25 07:55:19;;;;;;;11.27;4.30;;;3.50;99.90;;;;;;5032221;28;20198;-62
2021/12/25 07:57:45;;;;;;;11.23;4.47;;;3.50;99.90;;;;;;5032787;28;20272;-58
2021/12/25 08:00:12;;;;;;;9.27;4.53;;;3.50;99.90;;;;;;5031983;28;20183;-59
2021/12/25 08:02:38;;;;;;;8.60;4.40;;;3.50;99.90;;;;;;5032601;28;20175;-59
2021/12/25 08:05:04;;;;;;;13.80;4.80;;;3.60;99.90;;;;;;5032631;28;20824;-60
2021/12/25 08:07:30;;;;;;;12.97;4.97;;;3.60;99.90;;;;;;5032269;28;20207;-59
2021/12/25 08:10:06;;;;;;;12.80;5.23;;;3.60;99.90;;;;;;5032396;28;20555;-59
2021/12/25 08:12:32;;;;;;;11.53;4.93;;;3.60;99.90;;;;;;5032545;28;20174;-58
2021/12/25 08:14:57;;;;;;;11.37;5.57;;;3.50;99.90;;;;;;5032025;28;20187;-58
2021/12/25 08:17:23;;;;;;;9.67;5.07;;;3.40;99.90;;;;;;5031672;28;20245;-59
2021/12/25 08:19:49;;;;;;;11.30;4.63;;;3.40;99.90;;;;;;5032515;28;20183;-59
2021/12/25 08:22:15;;;;;;;12.27;5.23;;;3.40;99.90;;;;;;5032114;28;20193;-59
2021/12/25 08:24:40;;;;;;;9.33;4.90;;;3.40;99.90;;;;;;5019184;28;20195;-60
2021/12/25 08:27:07;;;;;;;14.63;5.67;;;3.50;99.90;;;;;;5012662;28;20230;-60
2021/12/25 08:29:36;;;;;;;12.33;5.27;;;3.50;99.90;;;;;;5019413;28;20233;-58
2021/12/25 08:32:03;;;;;;;9.20;4.47;;;3.40;99.90;;;;;;5031778;28;20187;-60
2021/12/25 08:34:29;;;;;;;10.03;4.90;;;3.40;99.90;;;;;;5031724;28;20183;-60
2021/12/25 08:36:55;;;;;;;8.13;4.07;;;3.30;99.90;;;;;;5032427;28;20268;-60
2021/12/25 08:39:20;;;;;;;10.40;4.90;;;3.20;99.90;;;;;;5031667;28;20186;-61
2021/12/25 08:41:46;;;;;;;9.97;4.53;;;3.30;99.90;;;;;;5032185;28;20187;-60
2021/12/25 08:44:33;;;;;;;9.50;4.70;;;3.30;99.90;;;;;;5031502;28;20186;-60
2021/12/25 08:47:04;;;;;;;8.43;3.73;;;3.30;99.90;;;;;;5031986;28;20254;-59
2021/12/25 08:49:32;;;;;;;8.93;4.97;;;3.20;99.90;;;;;;5014116;28;20188;-59
2021/12/25 08:52:02;;;;;;;7.30;3.30;;;3.20;99.90;;;;;;5031953;28;20209;-60
2021/12/25 08:54:28;;;;;;;7.43;3.67;;;3.20;99.90;;;;;;5031685;28;20275;-58
2021/12/25 08:56:54;;;;;;;7.43;3.17;;;3.20;99.90;;;;;;5031760;28;20212;-59
2021/12/25 08:59:21;;;;;;;10.43;3.93;;;3.20;99.90;;;;;;5031133;28;20548;-59
2021/12/25 09:01:47;;;;;;;13.00;4.67;;;3.30;99.90;;;;;;5031432;28;20179;-60
2021/12/25 09:04:13;;;;;;;6.80;3.13;;;3.40;99.90;;;;;;5031494;28;20238;-58
2021/12/25 09:06:39;;;;;;;5.83;2.47;;;3.40;99.90;;;;;;5031953;28;20211;-60
2021/12/25 09:09:08;;;;;;;8.17;2.67;;;3.40;99.90;;;;;;5031500;28;20676;-59
2021/12/25 09:11:36;;;;;;;10.00;3.73;;;3.40;99.90;;;;;;5031549;28;20210;-61
2021/12/25 09:14:02;;;;;;;8.10;2.60;;;3.40;99.90;;;;;;5031356;28;20220;-63
2021/12/25 09:16:28;;;;;;;7.27;2.80;;;3.40;99.90;;;;;;5031392;28;20230;-59
2021/12/25 09:18:54;;;;;;;4.67;2.23;;;3.30;99.90;;;;;;5014132;28;20627;-60
2021/12/25 09:21:20;;;;;;;7.60;2.43;;;3.20;99.90;;;;;;5032899;28;20202;-59
2021/12/25 09:23:45;;;;;;;7.43;2.80;;;3.20;99.90;;;;;;5029132;28;20187;-59
2021/12/25 09:26:11;;;;;;;6.03;2.80;;;3.20;99.90;;;;;;4998084;28;20188;-60
2021/12/25 09:28:37;;;;;;;7.43;2.47;;;3.30;99.90;;;;;;4997746;28;20216;-67
2021/12/25 09:31:04;;;;;;;8.63;2.07;;;3.30;99.90;;;;;;5034935;28;20182;-61
2021/12/25 09:33:30;;;;;;;9.03;2.40;;;3.30;99.90;;;;;;5035058;28;20197;-59
2021/12/25 09:35:56;;;;;;;8.30;2.90;;;3.30;99.90;;;;;;5035527;28;20204;-59
2021/12/25 09:38:22;;;;;;;9.03;3.07;;;3.30;99.90;;;;;;5035548;28;20533;-61
2021/12/25 09:40:48;;;;;;;14.03;4.50;;;3.40;99.90;;;;;;5035149;28;20282;-59
2021/12/25 09:43:17;;;;;;;8.37;3.67;;;3.40;99.90;;;;;;5034954;28;20215;-60
2021/12/25 09:45:43;;;;;;;6.03;3.80;;;3.50;99.90;;;;;;5034617;28;20195;-61
2021/12/25 09:48:09;;;;;;;10.33;4.93;;;3.60;99.90;;;;;;5034624;28;20182;-60
2021/12/25 09:50:35;;;;;;;8.00;3.80;;;3.70;99.90;;;;;;5017251;28;20665;-60
2021/12/25 09:53:09;;;;;;;12.73;4.83;;;3.90;99.90;;;;;;5034329;28;20218;-72
2021/12/25 09:55:37;;;;;;;8.20;4.67;;;3.90;99.90;;;;;;5014985;28;20181;-59
2021/12/25 09:58:04;;;;;;;8.83;4.00;;;3.90;99.90;;;;;;5014714;28;20582;-62
2021/12/25 10:00:33;;;;;;;8.50;4.20;;;4.00;99.90;;;;;;5015041;28;20183;-59
2021/12/25 10:02:59;;;;;;;9.53;4.20;;;3.80;99.90;;;;;;5015380;28;20204;-61
2021/12/25 10:05:31;;;;;;;11.00;4.23;;;3.90;99.90;;;;;;5014562;28;20209;-61
2021/12/25 10:08:07;;;;;;;13.80;3.83;;;4.00;99.90;;;;;;5015091;28;20176;-60
2021/12/25 10:10:55;;;;;;;9.77;2.93;;;4.00;99.90;;;;;;4981424;28;20172;-60
2021/12/25 10:13:38;;;;;;;7.97;3.23;;;3.90;99.90;;;;;;5014238;28;20227;-63
2021/12/25 10:16:24;;;;;;;10.07;3.60;;;4.00;99.90;;;;;;5014157;28;20243;-62
2021/12/25 10:18:55;;;;;;;6.73;3.40;;;4.10;99.90;;;;;;5014739;28;20243;-60
2021/12/25 10:21:22;;;;;;;10.77;3.57;;;4.20;99.90;;;;;;5014432;28;20212;-59
2021/12/25 10:24:18;;;;;;;7.27;3.47;;;4.20;99.90;;;;;;5013892;28;20645;-59
2021/12/25 10:26:48;;;;;;;11.13;3.50;;;4.20;99.90;;;;;;5014501;28;20179;-60
2021/12/25 10:29:30;;;;;;;10.80;3.10;;;4.00;99.90;;;;;;5018631;28;20329;-59
2021/12/25 10:31:58;;;;;;;8.33;3.23;;;3.80;99.90;;;;;;5034347;28;20175;-60
2021/12/25 10:34:27;;;;;;;8.53;2.87;;;3.80;99.90;;;;;;5033681;28;20186;-59
2021/12/25 10:36:54;;;;;;;11.57;3.57;;;3.90;99.90;;;;;;5034177;28;20214;-59
2021/12/25 10:39:27;;;;;;;12.37;3.77;;;3.70;99.90;;;;;;5032889;28;20222;-59
2021/12/25 10:41:59;;;;;;;13.97;3.23;;;3.60;99.90;;;;;;5033683;28;20170;-60
2021/12/25 10:44:26;;;;;;;12.03;3.73;;;3.50;99.90;;;;;;5033441;28;20171;-59
2021/12/25 10:46:58;;;;;;;7.53;3.20;;;3.40;99.90;;;;;;5034050;28;20174;-60
2021/12/25 10:49:30;;;;;;;8.50;3.13;;;3.10;99.90;;;;;;5033513;28;20257;-60
2021/12/25 10:52:09;;;;;;;17.33;4.03;;;3.00;99.90;;;;;;5033597;28;20185;-61
2021/12/25 10:54:37;;;;;;;10.20;3.87;;;3.00;99.90;;;;;;5033404;28;20194;-60
2021/12/25 10:57:04;;;;;;;11.30;3.90;;;3.00;99.90;;;;;;5033388;28;20217;-65
2021/12/25 10:59:45;;;;;;;10.40;3.83;;;3.00;99.90;;;;;;5033070;28;20643;-59
2021/12/25 11:02:32;;;;;;;9.63;3.30;;;3.00;99.90;;;;;;5033426;28;20309;-59
2021/12/25 11:04:58;;;;;;;10.70;3.50;;;3.00;99.90;;;;;;5033383;28;20658;-59
2021/12/25 11:07:25;;;;;;;10.87;3.93;;;3.00;99.90;;;;;;5033429;28;20603;-60
2021/12/25 11:10:15;;;;;;;11.67;3.43;;;3.10;99.90;;;;;;5033227;28;20179;-62
2021/12/25 11:12:41;;;;;;;11.80;3.73;;;3.10;99.90;;;;;;5033513;28;20266;-59
2021/12/25 11:15:17;;;;;;;10.00;3.63;;;3.00;99.90;;;;;;5032446;28;20273;-60
2021/12/25 11:17:49;;;;;;;14.90;4.60;;;3.00;99.90;;;;;;5033089;28;20288;-60
2021/12/25 11:20:22;;;;;;;14.50;4.50;;;3.00;99.90;;;;;;5033022;28;20260;-60
2021/12/25 11:22:57;;;;;;;5.40;2.93;;;3.00;99.90;;;;;;5033451;28;20163;-60
2021/12/25 11:25:25;;;;;;;9.30;4.47;;;2.90;99.90;;;;;;5013498;28;20218;-60
2021/12/25 11:27:51;;;;;;;16.23;5.13;;;2.80;99.90;;;;;;5013198;28;20171;-64
2021/12/25 11:30:20;;;;;;;9.30;4.17;;;2.70;99.90;;;;;;5008890;28;20190;-60
2021/12/25 11:32:47;;;;;;;10.53;4.33;;;2.60;99.90;;;;;;5033205;28;20282;-60
2021/12/25 11:35:18;;;;;;;8.97;4.57;;;2.60;99.90;;;;;;5033005;28;20181;-60
2021/12/25 11:37:45;;;;;;;21.10;4.90;;;2.60;99.90;;;;;;5033944;28;20659;-61
2021/12/25 11:40:12;;;;;;;26.70;7.77;;;2.60;99.90;;;;;;5015383;28;20240;-60
2021/12/25 11:42:45;;;;;;;13.70;4.63;;;2.60;99.90;;;;;;5032721;28;20642;-65
2021/12/25 11:45:15;;;;;;;10.33;4.63;;;2.50;99.90;;;;;;5031986;28;20189;-62
2021/12/25 11:47:48;;;;;;;12.03;4.43;;;2.50;99.90;;;;;;5032629;28;20194;-61
2021/12/25 11:50:31;;;;;;;11.70;4.53;;;2.40;99.90;;;;;;5032506;28;20265;-61
2021/12/25 11:53:19;;;;;;;15.17;4.77;;;2.40;99.90;;;;;;5032712;28;20183;-60
2021/12/25 11:56:04;;;;;;;16.73;5.00;;;2.40;99.90;;;;;;4995271;28;20645;-59
2021/12/25 11:58:38;;;;;;;10.70;5.17;;;2.50;99.90;;;;;;5012645;28;20667;-60
2021/12/25 12:01:32;;;;;;;12.10;5.70;;;2.40;99.90;;;;;;5012624;28;20585;-64
2021/12/25 12:03:58;;;;;;;15.07;6.20;;;2.40;99.90;;;;;;5012820;28;20243;-60
2021/12/25 12:06:51;;;;;;;9.40;5.07;;;2.30;99.90;;;;;;5011993;28;20710;-62
2021/12/25 12:09:21;;;;;;;12.93;5.80;;;2.20;99.90;;;;;;5012251;28;20513;-59
2021/12/25 12:12:04;;;;;;;12.50;5.73;;;2.20;99.90;;;;;;5012374;28;20201;-60
2021/12/25 12:14:31;;;;;;;14.53;6.67;;;2.20;99.90;;;;;;5011837;28;20216;-60
2021/12/25 12:17:06;;;;;;;10.93;6.07;;;2.20;99.90;;;;;;4994109;28;20281;-60
2021/12/25 12:19:36;;;;;;;13.50;6.63;;;2.20;99.90;;;;;;5013030;28;20172;-59
2021/12/25 12:22:14;;;;;;;10.97;6.23;;;2.20;99.90;;;;;;5012028;28;20171;-59
2021/12/25 12:25:13;;;;;;;11.63;5.93;;;2.20;99.90;;;;;;5011990;28;20714;-60
2021/12/25 12:27:59;;;;;;;12.90;6.17;;;2.30;99.90;;;;;;5011527;28;20229;-60
2021/12/25 12:30:31;;;;;;;12.57;6.50;;;2.30;99.90;;;;;;5026760;28;20179;-61
2021/12/25 12:32:58;;;;;;;14.47;6.30;;;2.30;99.90;;;;;;5031914;28;20170;-61
2021/12/25 12:35:30;;;;;;;12.30;6.57;;;2.30;99.90;;;;;;5014173;28;20206;-60
2021/12/25 12:38:37;;;;;;;14.23;7.20;;;2.30;99.90;;;;;;5031486;28;20260;-59
2021/12/25 12:41:12;;;;;;;15.60;6.10;;;2.40;99.90;;;;;;5031666;28;20170;-66
2021/12/25 12:44:04;;;;;;;13.10;6.80;;;2.40;99.90;;;;;;5031712;28;20223;-59
2021/12/25 12:46:48;;;;;;;11.87;6.03;;;2.40;99.90;;;;;;5031706;28;20176;-60
2021/12/25 12:49:19;;;;;;;11.57;5.23;;;2.30;99.90;;;;;;5031533;28;20198;-58
2021/12/25 12:52:08;;;;;;;12.80;6.63;;;2.30;99.90;;;;;;5031835;28;20182;-62
2021/12/25 12:54:50;;;;;;;13.57;6.90;;;2.20;99.90;;;;;;5032056;28;20644;-60
2021/12/25 12:57:41;;;;;;;10.87;6.70;;;2.10;99.90;;;;;;5030713;28;20203;-59
2021/12/25 13:00:22;;;;;;;16.23;7.27;;;2.10;99.90;;;;;;5004892;28;20218;-60
2021/12/25 13:02:58;;;;;;;14.47;7.97;;;2.20;99.90;;;;;;5031838;28;20186;-61
2021/12/25 13:05:26;;;;;;;17.10;6.87;;;2.20;99.90;;;;;;5031574;28;20174;-59
2021/12/25 13:07:56;;;;;;;15.40;7.80;;;2.10;99.90;;;;;;5031534;28;20207;-60
2021/12/25 13:10:36;;;;;;;14.93;7.73;;;1.90;99.90;;;;;;5031665;28;20316;-60
2021/12/25 13:13:12;;;;;;;12.90;6.80;;;1.70;99.90;;;;;;5031447;28;20170;-61
2021/12/25 13:15:41;;;;;;;16.67;7.53;;;1.60;99.90;;;;;;5031567;28;20192;-60
2021/12/25 13:18:07;;;;;;;13.93;8.27;;;1.30;99.90;;;;;;5031348;28;20256;-60
2021/12/25 13:20:48;;;;;;;15.30;7.03;;;1.20;99.90;;;;;;5031762;28;20264;-60
2021/12/25 13:23:36;;;;;;;13.73;7.27;;;1.00;99.90;;;;;;5030943;28;20189;-60
2021/12/25 13:26:08;;;;;;;14.63;7.20;;;0.90;99.90;;;;;;5031705;28;20184;-59
2021/12/25 13:28:38;;;;;;;12.40;7.07;;;0.80;99.90;;;;;;5031352;28;20172;-60
2021/12/25 13:31:07;;;;;;;14.33;7.13;;;0.70;99.90;;;;;;5011556;28;20166;-61
2021/12/25 13:33:36;;;;;;;14.73;7.40;;;0.70;99.90;;;;;;5011529;28;20184;-59
2021/12/25 13:36:11;;;;;;;18.67;9.73;;;0.70;99.90;;;;;;5011509;28;20656;-61
2021/12/25 13:38:50;;;;;;;20.30;8.67;;;0.70;99.90;;;;;;5011792;28;20172;-64
2021/12/25 13:41:27;;;;;;;19.10;9.70;;;0.60;99.90;;;;;;5011463;28;20181;-59
2021/12/25 13:44:03;;;;;;;15.60;8.07;;;0.60;99.90;;;;;;5011143;28;20176;-62
2021/12/25 13:46:55;;;;;;;16.80;8.23;;;0.50;99.90;;;;;;5011116;28;20169;-60
2021/12/25 13:49:35;;;;;;;19.07;8.00;;;0.40;99.90;;;;;;4994389;28;20194;-60
2021/12/25 13:52:10;;;;;;;16.33;8.50;;;0.40;99.90;;;;;;5029778;28;20176;-60
2021/12/25 13:54:40;;;;;;;15.47;7.17;;;0.30;99.90;;;;;;5030583;28;20192;-61
2021/12/25 13:57:06;;;;;;;15.40;8.03;;;0.20;99.90;;;;;;5030522;28;20223;-60
2021/12/25 13:59:35;;;;;;;16.33;8.83;;;0.20;99.90;;;;;;5013301;28;20620;-60
2021/12/25 14:02:05;;;;;;;17.43;8.87;;;0.10;99.90;;;;;;5031166;28;20276;-60
2021/12/25 14:04:32;;;;;;;19.30;8.63;;;0.10;99.90;;;;;;5030947;28;20185;-60
2021/12/25 14:06:59;;;;;;;16.57;8.60;;;0.10;99.90;;;;;;5031605;28;20193;-63
2021/12/25 14:09:25;;;;;;;18.20;7.77;;;0.10;99.90;;;;;;5034261;28;20172;-59
2021/12/25 14:11:53;;;;;;;16.17;8.37;;;0.00;99.90;;;;;;5034353;28;20252;-61
2021/12/25 14:14:21;;;;;;;31.97;12.50;;;0.10;99.90;;;;;;5034102;28;20207;-58
2021/12/25 14:16:48;;;;;;;30.00;12.83;;;0.00;99.90;;;;;;5034253;28;20262;-60
2021/12/25 14:19:14;;;;;;;25.47;10.97;;;0.00;99.90;;;;;;5034098;28;20225;-62
2021/12/25 14:21:51;;;;;;;20.73;10.03;;;0.00;99.90;;;;;;5034698;28;20184;-60
2021/12/25 14:24:17;;;;;;;22.33;10.90;;;-0.10;99.90;;;;;;5023510;28;20488;-60